createdAt,value
2022-10-01T00:01:35.286Z,94.56
2022-10-01T00:04:01.208Z,95.65
2022-10-01T00:06:27.003Z,95.45
2022-10-01T00:08:52.728Z,95.70
2022-10-01T00:11:24.466Z,95.32
2022-10-01T00:13:51.546Z,95.55
2022-10-01T00:16:24.363Z,95.64
2022-10-01T00:18:52.945Z,95.69
2022-10-01T00:21:21.616Z,96.53
2022-10-01T00:23:52.310Z,96.30
2022-10-01T00:26:20.737Z,97.21
2022-10-01T00:28:52.933Z,97.62
2022-10-01T00:31:18.754Z,97.85
2022-10-01T00:33:44.594Z,97.64
2022-10-01T00:36:11.317Z,97.97
2022-10-01T00:38:39.506Z,98.21
2022-10-01T00:41:08.566Z,98.71
2022-10-01T00:43:37.199Z,98.75
2022-10-01T00:46:08.816Z,99.63
2022-10-01T00:48:43.762Z,99.08
2022-10-01T00:51:10.850Z,100.00
2022-10-01T00:53:37.728Z,100.00
2022-10-01T00:56:05.421Z,100.00
2022-10-01T00:58:34.371Z,100.00
2022-10-01T01:01:00.168Z,100.00
2022-10-01T01:03:26.094Z,100.00
2022-10-01T01:05:52.065Z,100.00
2022-10-01T01:08:18.005Z,100.00
2022-10-01T01:10:57.066Z,100.00
2022-10-01T01:13:52.069Z,100.00
2022-10-01T01:16:34.595Z,100.00
2022-10-01T01:19:07.993Z,100.00
2022-10-01T01:21:43.538Z,100.00
2022-10-01T01:24:32.182Z,100.00
2022-10-01T01:27:25.201Z,100.00
2022-10-01T01:30:20.308Z,100.00
2022-10-01T01:32:52.083Z,100.00
2022-10-01T01:35:52.488Z,100.00
2022-10-01T01:38:27.199Z,100.00
2022-10-01T01:40:57.864Z,100.00
2022-10-01T01:43:29.096Z,100.00
2022-10-01T01:45:54.883Z,100.00
2022-10-01T01:48:25.564Z,100.00
2022-10-01T01:51:05.269Z,100.00
2022-10-01T01:53:31.462Z,100.00
2022-10-01T01:55:59.555Z,100.00
2022-10-01T01:58:27.107Z,100.00
2022-10-01T02:00:53.105Z,100.00
2022-10-01T02:03:25.880Z,100.00
2022-10-01T02:06:09.633Z,100.00
2022-10-01T02:08:47.245Z,100.00
2022-10-01T02:11:24.223Z,100.00
2022-10-01T02:14:14.390Z,100.00
2022-10-01T02:16:55.281Z,100.00
2022-10-01T02:19:29.823Z,100.00
2022-10-01T02:22:36.865Z,100.00
2022-10-01T02:25:05.388Z,100.00
2022-10-01T02:27:49.984Z,100.00
2022-10-01T02:30:16.785Z,100.00
2022-10-01T02:32:45.603Z,100.00
2022-10-01T02:35:15.928Z,100.00
2022-10-01T02:37:45.214Z,100.00
2022-10-01T02:40:15.413Z,100.00
2022-10-01T02:42:54.880Z,100.00
2022-10-01T02:45:23.552Z,100.00
2022-10-01T02:47:56.509Z,100.00
2022-10-01T02:50:27.399Z,100.00
2022-10-01T02:53:08.910Z,100.00
2022-10-01T02:55:40.003Z,100.00
2022-10-01T02:58:07.012Z,100.00
2022-10-01T03:00:33.129Z,100.00
2022-10-01T03:02:58.976Z,100.00
2022-10-01T03:05:25.127Z,100.00
2022-10-01T03:07:51.838Z,100.00
2022-10-01T03:10:17.841Z,100.00
2022-10-01T03:12:45.619Z,100.00
2022-10-01T03:15:12.959Z,100.00
2022-10-01T03:17:38.715Z,100.00
2022-10-01T03:20:05.800Z,100.00
2022-10-01T03:22:32.694Z,100.00
2022-10-01T03:24:59.023Z,100.00
2022-10-01T03:27:24.909Z,100.00
2022-10-01T03:29:51.012Z,100.00
2022-10-01T03:32:17.366Z,100.00
2022-10-01T03:34:43.367Z,100.00
2022-10-01T03:37:09.428Z,100.00
2022-10-01T03:39:35.367Z,100.00
2022-10-01T03:42:01.385Z,100.00
2022-10-01T03:44:29.974Z,100.00
2022-10-01T03:46:55.778Z,100.00
2022-10-01T03:49:21.680Z,100.00
2022-10-01T03:51:47.501Z,100.00
2022-10-01T03:54:13.305Z,100.00
2022-10-01T03:56:42.027Z,100.00
2022-10-01T03:59:10.631Z,100.00
2022-10-01T04:01:36.926Z,100.00
2022-10-01T04:04:03.390Z,100.00
2022-10-01T04:06:30.232Z,100.00
2022-10-01T04:08:56.173Z,100.00
2022-10-01T04:11:21.986Z,100.00
2022-10-01T04:13:48.066Z,100.00
2022-10-01T04:16:15.283Z,100.00
2022-10-01T04:18:41.839Z,100.00
2022-10-01T04:21:07.810Z,100.00
2022-10-01T04:23:33.782Z,100.00
2022-10-01T04:26:01.590Z,100.00
2022-10-01T04:28:28.293Z,100.00
2022-10-01T04:31:14.148Z,100.00
2022-10-01T04:33:40.325Z,100.00
2022-10-01T04:36:06.265Z,100.00
2022-10-01T04:38:32.133Z,100.00
2022-10-01T04:40:57.888Z,100.00
2022-10-01T04:43:23.685Z,100.00
2022-10-01T04:45:49.468Z,100.00
2022-10-01T04:48:15.259Z,100.00
2022-10-01T04:50:41.033Z,100.00
2022-10-01T04:53:06.773Z,100.00
2022-10-01T04:55:32.504Z,100.00
2022-10-01T04:57:58.269Z,100.00
2022-10-01T05:00:25.674Z,100.00
2022-10-01T05:02:52.577Z,100.00
2022-10-01T05:05:21.806Z,100.00
2022-10-01T05:07:48.344Z,100.00
2022-10-01T05:10:20.613Z,100.00
2022-10-01T05:12:47.579Z,100.00
2022-10-01T05:15:14.409Z,100.00
2022-10-01T05:17:40.231Z,100.00
2022-10-01T05:20:07.547Z,100.00
2022-10-01T05:22:33.397Z,100.00
2022-10-01T05:24:59.604Z,100.00
2022-10-01T05:27:26.645Z,100.00
2022-10-01T05:29:52.867Z,100.00
2022-10-01T05:32:18.994Z,100.00
2022-10-01T05:34:44.739Z,100.00
2022-10-01T05:37:11.244Z,100.00
2022-10-01T05:39:37.417Z,100.00
2022-10-01T05:42:06.406Z,100.00
2022-10-01T05:44:37.003Z,100.00
2022-10-01T05:47:06.597Z,100.00
2022-10-01T05:49:32.733Z,100.00
2022-10-01T05:52:00.207Z,100.00
2022-10-01T05:54:29.600Z,100.00
2022-10-01T05:56:58.242Z,100.00
2022-10-01T05:59:27.337Z,100.00
2022-10-01T06:01:55.592Z,100.00
2022-10-01T06:04:21.395Z,100.00
2022-10-01T06:06:47.140Z,100.00
2022-10-01T06:09:13.097Z,100.00
2022-10-01T06:11:39.278Z,100.00
2022-10-01T06:14:05.639Z,100.00
2022-10-01T06:16:31.480Z,100.00
2022-10-01T06:18:57.504Z,100.00
2022-10-01T06:21:24.459Z,100.00
2022-10-01T06:23:51.014Z,100.00
2022-10-01T06:26:17.370Z,100.00
2022-10-01T06:28:43.134Z,100.00
2022-10-01T06:31:08.918Z,100.00
2022-10-01T06:33:35.532Z,100.00
2022-10-01T06:36:03.716Z,100.00
2022-10-01T06:38:30.395Z,100.00
2022-10-01T06:40:58.176Z,100.00
2022-10-01T06:43:26.048Z,100.00
2022-10-01T06:45:52.530Z,100.00
2022-10-01T06:48:19.658Z,100.00
2022-10-01T06:50:47.549Z,100.00
2022-10-01T06:53:14.956Z,100.00
2022-10-01T06:55:41.390Z,100.00
2022-10-01T06:58:13.319Z,100.00
2022-10-01T07:00:39.282Z,100.00
2022-10-01T07:03:10.336Z,100.00
2022-10-01T07:05:37.602Z,100.00
2022-10-01T07:08:04.027Z,100.00
2022-10-01T07:10:31.452Z,100.00
2022-10-01T07:13:05.845Z,100.00
2022-10-01T07:15:31.627Z,100.00
2022-10-01T07:17:57.405Z,100.00
2022-10-01T07:20:23.321Z,100.00
2022-10-01T07:22:55.465Z,100.00
2022-10-01T07:25:21.358Z,100.00
2022-10-01T07:27:47.290Z,100.00
2022-10-01T07:30:13.121Z,100.00
2022-10-01T07:32:38.974Z,100.00
2022-10-01T07:35:05.312Z,100.00
2022-10-01T07:37:31.127Z,100.00
2022-10-01T07:39:56.863Z,100.00
2022-10-01T07:42:22.661Z,100.00
2022-10-01T07:44:48.416Z,100.00
2022-10-01T07:47:14.441Z,100.00
2022-10-01T07:49:43.134Z,100.00
2022-10-01T07:52:13.108Z,100.00
2022-10-01T07:54:39.617Z,100.00
2022-10-01T07:57:05.384Z,100.00
2022-10-01T07:59:31.157Z,100.00
2022-10-01T08:01:57.028Z,100.00
2022-10-01T08:04:42.087Z,100.00
2022-10-01T08:07:08.122Z,100.00
2022-10-01T08:09:34.357Z,100.00
2022-10-01T08:12:01.669Z,100.00
2022-10-01T08:14:27.972Z,100.00
2022-10-01T08:16:55.169Z,100.00
2022-10-01T08:19:21.161Z,100.00
2022-10-01T08:21:47.055Z,100.00
2022-10-01T08:24:13.513Z,100.00
2022-10-01T08:26:39.673Z,100.00
2022-10-01T08:29:05.494Z,100.00
2022-10-01T08:31:31.567Z,100.00
2022-10-01T08:33:57.992Z,100.00
2022-10-01T08:36:23.965Z,100.00
2022-10-01T08:38:49.772Z,100.00
2022-10-01T08:41:34.535Z,100.00
2022-10-01T08:44:04.479Z,100.00
2022-10-01T08:46:34.434Z,100.00
2022-10-01T08:49:15.334Z,100.00
2022-10-01T08:52:06.173Z,100.00
2022-10-01T08:54:39.155Z,100.00
2022-10-01T08:57:11.826Z,100.00
2022-10-01T08:59:40.300Z,100.00
2022-10-01T09:02:14.730Z,100.00
2022-10-01T09:04:40.613Z,100.00
2022-10-01T09:07:29.312Z,100.00
2022-10-01T09:10:04.697Z,100.00
2022-10-01T09:12:46.870Z,100.00
2022-10-01T09:15:27.810Z,100.00
2022-10-01T09:18:15.299Z,100.00
2022-10-01T09:20:45.990Z,100.00
2022-10-01T09:23:20.550Z,100.00
2022-10-01T09:25:52.477Z,100.00
2022-10-01T09:28:24.172Z,100.00
2022-10-01T09:30:56.126Z,100.00
2022-10-01T09:33:28.875Z,100.00
2022-10-01T09:36:33.805Z,100.00
2022-10-01T09:39:28.617Z,100.00
2022-10-01T09:41:54.459Z,100.00
2022-10-01T09:44:29.530Z,100.00
2022-10-01T09:46:55.583Z,100.00
2022-10-01T09:49:45.368Z,100.00
2022-10-01T09:52:26.336Z,100.00
2022-10-01T09:55:17.165Z,100.00
2022-10-01T09:57:52.620Z,100.00
2022-10-01T10:00:22.238Z,100.00
2022-10-01T10:02:53.494Z,100.00
2022-10-01T10:05:25.280Z,100.00
2022-10-01T10:07:58.626Z,100.00
2022-10-01T10:10:36.202Z,100.00
2022-10-01T10:13:19.381Z,100.00
2022-10-01T10:16:14.173Z,100.00
2022-10-01T10:18:40.628Z,100.00
2022-10-01T10:21:17.349Z,100.00
2022-10-01T10:23:52.297Z,100.00
2022-10-01T10:26:27.857Z,100.00
2022-10-01T10:28:55.761Z,100.00
2022-10-01T10:31:25.581Z,100.00
2022-10-01T10:34:01.627Z,100.00
2022-10-01T10:36:33.596Z,100.00
2022-10-01T10:39:00.141Z,100.00
2022-10-01T10:41:28.319Z,100.00
2022-10-01T10:43:59.824Z,100.00
2022-10-01T10:46:33.428Z,100.00
2022-10-01T10:49:05.279Z,100.00
2022-10-01T10:52:17.519Z,100.00
2022-10-01T10:54:47.421Z,100.00
2022-10-01T10:57:20.485Z,100.00
2022-10-01T11:00:01.247Z,100.00
2022-10-01T11:02:30.059Z,100.00
2022-10-01T11:05:04.091Z,100.00
2022-10-01T11:07:31.187Z,100.00
2022-10-01T11:10:00.135Z,100.00
2022-10-01T11:12:26.000Z,100.00
2022-10-01T11:15:15.081Z,100.00
2022-10-01T11:18:01.685Z,100.00
2022-10-01T11:20:49.762Z,100.00
2022-10-01T11:23:37.305Z,100.00
2022-10-01T11:26:34.238Z,100.00
2022-10-01T11:29:18.528Z,100.00
2022-10-01T11:32:19.409Z,100.00
2022-10-01T11:35:06.624Z,100.00
2022-10-01T11:37:41.293Z,100.00
2022-10-01T11:40:27.876Z,100.00
2022-10-01T11:43:02.221Z,100.00
2022-10-01T11:45:35.158Z,100.00
2022-10-01T11:48:08.377Z,100.00
2022-10-01T11:50:39.585Z,100.00
2022-10-01T11:53:30.229Z,100.00
2022-10-01T11:56:20.156Z,100.00
2022-10-01T11:59:03.575Z,100.00
2022-10-01T12:01:47.002Z,100.00
2022-10-01T12:04:16.717Z,100.00
2022-10-01T12:06:54.857Z,100.00
2022-10-01T12:09:29.167Z,100.00
2022-10-01T12:12:07.055Z,100.00
2022-10-01T12:14:50.266Z,100.00
2022-10-01T12:17:34.485Z,100.00
2022-10-01T12:20:04.958Z,100.00
2022-10-01T12:22:35.104Z,100.00
2022-10-01T12:25:01.072Z,100.00
2022-10-01T12:28:04.946Z,100.00
2022-10-01T12:30:49.054Z,100.00
2022-10-01T12:33:44.044Z,97.93
2022-10-01T12:36:19.227Z,100.00
2022-10-01T12:38:59.680Z,100.00
2022-10-01T12:41:48.831Z,100.00
2022-10-01T12:44:26.480Z,100.00
2022-10-01T12:47:14.189Z,100.00
2022-10-01T12:50:07.591Z,94.96
2022-10-01T12:52:39.298Z,94.68
2022-10-01T12:55:27.133Z,99.98
2022-10-01T12:58:16.652Z,100.00
2022-10-01T13:01:06.254Z,100.00
2022-10-01T13:03:51.565Z,100.00
2022-10-01T13:06:36.977Z,100.00
2022-10-01T13:09:08.475Z,100.00
2022-10-01T13:11:43.929Z,100.00
2022-10-01T13:14:12.426Z,100.00
2022-10-01T13:16:53.674Z,100.00
2022-10-01T13:19:26.284Z,100.00
2022-10-01T13:21:57.028Z,100.00
2022-10-01T13:24:26.643Z,100.00
2022-10-01T13:26:59.275Z,100.00
2022-10-01T13:29:53.386Z,100.00
2022-10-01T13:32:36.758Z,100.00
2022-10-01T13:35:25.993Z,100.00
2022-10-01T13:37:52.463Z,100.00
2022-10-01T13:40:30.378Z,100.00
2022-10-01T13:43:00.900Z,100.00
2022-10-01T13:45:38.945Z,100.00
2022-10-01T13:48:11.907Z,100.00
2022-10-01T13:50:39.689Z,100.00
2022-10-01T13:53:14.501Z,100.00
2022-10-01T13:55:42.380Z,100.00
2022-10-01T13:58:40.519Z,100.00
2022-10-01T14:01:26.978Z,100.00
2022-10-01T14:04:14.039Z,100.00
2022-10-01T14:07:16.315Z,100.00
2022-10-01T14:09:49.632Z,100.00
2022-10-01T14:12:47.480Z,100.00
2022-10-01T14:15:35.918Z,100.00
2022-10-01T14:18:15.796Z,100.00
2022-10-01T14:21:03.074Z,100.00
2022-10-01T14:23:42.947Z,100.00
2022-10-01T14:26:21.125Z,100.00
2022-10-01T14:29:08.188Z,100.00
2022-10-01T14:31:41.146Z,100.00
2022-10-01T14:34:23.873Z,100.00
2022-10-01T14:36:52.810Z,100.00
2022-10-01T14:39:28.794Z,100.00
2022-10-01T14:41:56.659Z,100.00
2022-10-01T14:44:25.415Z,100.00
2022-10-01T14:46:56.534Z,100.00
2022-10-01T14:49:32.125Z,100.00
2022-10-01T14:52:01.917Z,100.00
2022-10-01T14:54:30.446Z,100.00
2022-10-01T14:56:56.589Z,100.00
2022-10-01T14:59:37.070Z,100.00
2022-10-01T15:02:16.732Z,100.00
2022-10-01T15:04:47.549Z,100.00
2022-10-01T15:07:15.381Z,100.00
2022-10-01T15:09:41.161Z,100.00
2022-10-01T15:12:08.030Z,100.00
2022-10-01T15:14:35.889Z,100.00
2022-10-01T15:17:06.812Z,100.00
2022-10-01T15:19:42.738Z,100.00
2022-10-01T15:22:12.110Z,100.00
2022-10-01T15:24:42.462Z,100.00
2022-10-01T15:27:10.114Z,100.00
2022-10-01T15:29:41.377Z,100.00
2022-10-01T15:32:09.012Z,100.00
2022-10-01T15:34:38.242Z,100.00
2022-10-01T15:37:04.380Z,100.00
2022-10-01T15:39:40.694Z,100.00
2022-10-01T15:42:18.017Z,100.00
2022-10-01T15:44:46.203Z,100.00
2022-10-01T15:47:32.182Z,100.00
2022-10-01T15:50:10.136Z,100.00
2022-10-01T15:52:50.807Z,100.00
2022-10-01T15:55:22.020Z,100.00
2022-10-01T15:57:53.036Z,100.00
2022-10-01T16:00:28.042Z,100.00
2022-10-01T16:02:56.420Z,100.00
2022-10-01T16:05:25.552Z,100.00
2022-10-01T16:07:57.724Z,100.00
2022-10-01T16:10:29.487Z,100.00
2022-10-01T16:12:55.325Z,100.00
2022-10-01T16:15:29.700Z,100.00
2022-10-01T16:18:04.204Z,100.00
2022-10-01T16:20:37.016Z,100.00
2022-10-01T16:23:30.703Z,100.00
2022-10-01T16:25:56.609Z,100.00
2022-10-01T16:28:31.705Z,100.00
2022-10-01T16:30:57.701Z,100.00
2022-10-01T16:33:25.792Z,100.00
2022-10-01T16:36:08.343Z,100.00
2022-10-01T16:38:34.126Z,100.00
2022-10-01T16:41:00.334Z,100.00
2022-10-01T16:43:26.230Z,100.00
2022-10-01T16:45:52.535Z,100.00
2022-10-01T16:48:22.240Z,100.00
2022-10-01T16:50:48.394Z,100.00
2022-10-01T16:53:16.178Z,100.00
2022-10-01T16:55:43.049Z,100.00
2022-10-01T16:58:09.573Z,100.00
2022-10-01T17:00:36.465Z,100.00
2022-10-01T17:03:08.492Z,100.00
2022-10-01T17:05:36.277Z,100.00
2022-10-01T17:08:10.436Z,100.00
2022-10-01T17:10:40.469Z,100.00
2022-10-01T17:13:06.357Z,100.00
2022-10-01T17:15:32.580Z,100.00
2022-10-01T17:17:58.831Z,100.00
2022-10-01T17:20:27.829Z,100.00
2022-10-01T17:22:54.830Z,100.00
2022-10-01T17:25:22.920Z,100.00
2022-10-01T17:27:49.198Z,100.00
2022-10-01T17:30:15.714Z,100.00
2022-10-01T17:32:44.317Z,100.00
2022-10-01T17:35:11.779Z,100.00
2022-10-01T17:37:37.912Z,100.00
2022-10-01T17:40:05.463Z,100.00
2022-10-01T17:42:33.719Z,100.00
2022-10-01T17:45:00.426Z,100.00
2022-10-01T17:47:26.256Z,100.00
2022-10-01T17:49:52.404Z,100.00
2022-10-01T17:52:18.388Z,100.00
2022-10-01T17:54:44.844Z,100.00
2022-10-01T17:57:11.284Z,100.00
2022-10-01T17:59:37.566Z,100.00
2022-10-01T18:02:23.583Z,100.00
2022-10-01T18:04:52.883Z,100.00
2022-10-01T18:07:19.594Z,100.00
2022-10-01T18:09:45.766Z,100.00
2022-10-01T18:12:12.566Z,100.00
2022-10-01T18:14:38.557Z,100.00
2022-10-01T18:17:04.415Z,100.00
2022-10-01T18:19:52.830Z,100.00
2022-10-01T18:22:16.450Z,100.00
2022-10-01T18:24:45.135Z,100.00
2022-10-01T18:27:12.931Z,100.00
2022-10-01T18:29:39.293Z,100.00
2022-10-01T18:32:20.019Z,100.00
2022-10-01T18:34:54.015Z,100.00
2022-10-01T18:37:40.194Z,100.00
2022-10-01T18:40:16.639Z,100.00
2022-10-01T18:42:45.709Z,100.00
2022-10-01T18:45:21.772Z,100.00
2022-10-01T18:48:06.325Z,100.00
2022-10-01T18:50:46.574Z,100.00
2022-10-01T18:53:32.801Z,100.00
2022-10-01T18:56:13.721Z,100.00
2022-10-01T18:58:56.308Z,100.00
2022-10-01T19:01:31.211Z,100.00
2022-10-01T19:04:18.445Z,100.00
2022-10-01T19:06:48.280Z,100.00
2022-10-01T19:09:29.643Z,100.00
2022-10-01T19:12:00.272Z,100.00
2022-10-01T19:15:06.041Z,100.00
2022-10-01T19:17:46.621Z,100.00
2022-10-01T19:20:24.339Z,100.00
2022-10-01T19:23:05.979Z,100.00
2022-10-01T19:25:40.553Z,100.00
2022-10-01T19:28:21.179Z,100.00
2022-10-01T19:31:38.423Z,100.00
2022-10-01T19:34:38.511Z,100.00
2022-10-01T19:37:25.180Z,100.00
2022-10-01T19:39:55.692Z,100.00
2022-10-01T19:42:28.864Z,100.00
2022-10-01T19:45:13.360Z,100.00
2022-10-01T19:47:39.793Z,100.00
2022-10-01T19:50:32.127Z,100.00
2022-10-01T19:52:58.589Z,100.00
2022-10-01T19:55:29.634Z,100.00
2022-10-01T19:57:55.738Z,100.00
2022-10-01T20:00:23.049Z,100.00
2022-10-01T20:03:29.809Z,100.00
2022-10-01T20:06:02.808Z,100.00
2022-10-01T20:08:35.544Z,100.00
2022-10-01T20:11:18.183Z,100.00
2022-10-01T20:13:52.740Z,100.00
2022-10-01T20:16:39.996Z,100.00
2022-10-01T20:19:41.399Z,100.00
2022-10-01T20:22:21.771Z,100.00
2022-10-01T20:25:12.622Z,100.00
2022-10-01T20:27:50.166Z,100.00
2022-10-01T20:30:19.433Z,100.00
2022-10-01T20:32:59.135Z,100.00
2022-10-01T20:35:29.174Z,100.00
2022-10-01T20:38:06.135Z,100.00
2022-10-01T20:40:48.896Z,100.00
2022-10-01T20:43:20.405Z,100.00
2022-10-01T20:45:50.643Z,100.00
2022-10-01T20:48:22.621Z,100.00
2022-10-01T20:50:53.172Z,100.00
2022-10-01T20:53:38.176Z,100.00
2022-10-01T20:56:12.363Z,100.00
2022-10-01T20:58:44.031Z,100.00
2022-10-01T21:01:20.390Z,100.00
2022-10-01T21:03:53.573Z,100.00
2022-10-01T21:06:32.443Z,100.00
2022-10-01T21:09:42.001Z,100.00
2022-10-01T21:12:23.263Z,100.00
2022-10-01T21:14:56.071Z,100.00
2022-10-01T21:17:55.936Z,100.00
2022-10-01T21:20:43.381Z,100.00
2022-10-01T21:23:27.139Z,100.00
2022-10-01T21:26:43.568Z,100.00
2022-10-01T21:29:50.774Z,100.00
2022-10-01T21:33:00.075Z,100.00
2022-10-01T21:35:52.148Z,100.00
2022-10-01T21:38:24.784Z,100.00
2022-10-01T21:41:12.558Z,100.00
2022-10-01T21:43:56.804Z,100.00
2022-10-01T21:46:46.788Z,100.00
2022-10-01T21:49:28.378Z,100.00
2022-10-01T21:51:54.471Z,100.00
2022-10-01T21:54:42.020Z,100.00
2022-10-01T21:57:10.646Z,100.00
2022-10-01T21:59:58.417Z,100.00
2022-10-01T22:02:42.716Z,100.00
2022-10-01T22:05:22.781Z,100.00
2022-10-01T22:08:17.898Z,100.00
2022-10-01T22:10:47.715Z,100.00
2022-10-01T22:13:22.562Z,100.00
2022-10-01T22:15:53.511Z,100.00
2022-10-01T22:18:45.389Z,100.00
2022-10-01T22:21:16.760Z,100.00
2022-10-01T22:23:50.004Z,100.00
2022-10-01T22:26:20.315Z,100.00
2022-10-01T22:28:53.159Z,100.00
2022-10-01T22:31:25.315Z,100.00
2022-10-01T22:33:56.613Z,100.00
2022-10-01T22:36:30.865Z,100.00
2022-10-01T22:39:04.041Z,100.00
2022-10-01T22:41:36.317Z,100.00
2022-10-01T22:44:11.723Z,100.00
2022-10-01T22:46:40.687Z,100.00
2022-10-01T22:49:28.015Z,100.00
2022-10-01T22:52:23.627Z,100.00
2022-10-01T22:55:04.330Z,100.00
2022-10-01T22:58:03.083Z,100.00
2022-10-01T23:00:35.713Z,100.00
2022-10-01T23:03:16.534Z,100.00
2022-10-01T23:05:48.236Z,100.00
2022-10-01T23:08:27.655Z,100.00
2022-10-01T23:11:02.544Z,100.00
2022-10-01T23:13:43.432Z,100.00
2022-10-01T23:16:18.575Z,100.00
2022-10-01T23:18:50.128Z,100.00
2022-10-01T23:21:31.909Z,100.00
2022-10-01T23:24:31.597Z,100.00
2022-10-01T23:27:19.327Z,100.00
2022-10-01T23:30:06.866Z,100.00
2022-10-01T23:32:32.585Z,100.00
2022-10-01T23:35:18.719Z,100.00
2022-10-01T23:37:50.720Z,100.00
2022-10-01T23:40:20.431Z,100.00
2022-10-01T23:42:59.006Z,100.00
2022-10-01T23:45:48.719Z,100.00
2022-10-01T23:48:29.879Z,100.00
2022-10-01T23:51:07.031Z,100.00
2022-10-01T23:53:54.348Z,100.00
2022-10-01T23:56:50.372Z,100.00
2022-10-01T23:59:43.977Z,100.00
